Strathblane, United Kingdom
Current Conditions -  °F | °C
As of 1:20 PM on Sunday 21 Dec 2014 (Local Time) from EGPF Reporting Station
Drizzle Drizzle  
Wind Chill: 52°   Ceiling: 800
Heat Index: 52°   Visibility: 2mi
Dew Point: 50°   Wind: 22mph
Humidity: 94%   Direction: 230°SW
Pressure: 29.77"   Gusts: NA
Location:  55.99°N, 4.31°W
Report Text: EGPF 211320Z AUTO 23019KT 3300 DZ OVC008 11/10 Q1008
Loading
Personal Weather Stations






























Interactive Weather Map New forecast layout! Learn more

10-Day Weather Forecast

Advertisements
Track Severe Weather on mobile